Flight Track Log - Related Links

Times and Time Zones

All times are in EDT time to prevent confusion due to time zone crossing. See the RPA3253 flight status page for this flight to view local times or setup timezone preferences in your user account.

Time Position Orientation Groundspeed Altitude Reporting Facility
EDT Latitude Longitude Course Direction KTS MPH feet Rate Location/Type
Wed 07:30:38 PM 42.7653 -73.8061 169° South 140 161 1,200  Level Boston Center
Wed 07:31:26 PM 42.7983 -73.8267 335° Northwest 179 206 2,400 1,761 Climbing Boston Center
Wed 07:32:27 PM 42.8392 -73.9067 305° West 264 304 4,400 2,587 Climbing Boston Center
Wed 07:33:00 PM 42.4353 -74.1422 180° South  Level Estimated
Wed 07:33:15 PM 42.8694 -73.9642 306° West 302 348 7,100  Level Boston Center
Wed 07:34:00 PM 42.3567 -74.2268 170° South  Level Estimated
Wed 07:34:15 PM 42.9019 -74.0414 300° West 286 329 10,200  Level Boston Center
Wed 07:35:00 PM 42.2780 -74.3111 169° South  Level Estimated
Wed 07:35:15 PM 42.8917 -74.1689 264° West 283 326 12,400  Level Boston Center
Wed 07:36:15 PM 42.8608 -74.2728 248° West 310 357 15,000 2,650 Climbing Boston Center
Wed 07:37:15 PM 42.7464 -74.2636 177° South 336 387 17,700 2,300 Climbing Boston Center
Wed 07:38:15 PM 42.6494 -74.2044 156° South 366 421 19,600 2,050 Climbing Boston Center
Wed 07:39:15 PM 42.5297 -74.1164 152° Southeast 410 472 21,800 1,900 Climbing Boston Center
Wed 07:40:15 PM 42.4161 -74.0375 153° Southeast 435 501 23,400 1,700 Climbing Boston Center
Wed 07:41:15 PM 42.2961 -73.9783 160° South 457 526 25,200 1,650 Climbing Boston Center
Wed 07:42:15 PM 42.1728 -74.0006 188° South 439 505 26,700 1,300 Climbing Boston Center
Wed 07:43:15 PM 42.0514 -74.0394 193° South 439 505 27,800 977 Climbing Boston Center
Wed 07:45:07 PM 41.8225 -74.1028 192° South 461 531 29,500 953 Climbing New York Center
Wed 07:46:05 PM 41.6925 -74.1406 192° South 472 543 30,500 915 Climbing New York Center
Wed 07:47:05 PM 41.5664 -74.1758 192° South 477 549 31,300 744 Climbing New York Center
Wed 07:48:06 PM 41.4319 -74.2161 193° South 471 542 32,000 645 Climbing New York Center
Wed 07:49:06 PM 41.2936 -74.2531 191° South 485 558 32,600 694 Climbing New York Center
Wed 07:50:07 PM 41.1550 -74.2928 192° South 507 583 33,400 1,150 Climbing New York Center
Wed 07:51:06 PM 41.0183 -74.3325 192° South 507 583 34,900 1,059 Climbing New York Center
Wed 07:52:06 PM 40.8817 -74.3719 192° South 507 583 35,500 550 Climbing New York Center
Wed 07:53:06 PM 40.7628 -74.4478 206° Southwest 488 562 36,000 252 Climbing New York Center
Wed 07:54:05 PM 40.6858 -74.5694 230° Southwest 450 518 36,000  Level New York Center
Wed 07:55:05 PM 40.6111 -74.6939 232° Southwest 433 498 36,000  Level New York Center
Wed 07:56:06 PM 40.5319 -74.8178 230° Southwest 438 504 36,000  Level New York Center
Wed 07:57:04 PM 40.4442 -74.9408 227° Southwest 449 517 36,000  Level New York Center
Wed 07:58:05 PM 40.3564 -75.0633 227° Southwest 462 532 36,000  Level New York Center
Wed 07:59:05 PM 40.2706 -75.1858 227° Southwest 462 532 36,000  Level New York Center
Wed 08:00:06 PM 40.1844 -75.3108 228° Southwest 462 532 36,000  Level New York Center
Wed 08:01:06 PM 40.0967 -75.4300 226° Southwest 462 532 36,000  Level New York Center
Wed 08:02:06 PM 40.0061 -75.5539 226° Southwest 462 532 36,000  Level New York Center
Wed 08:03:06 PM 39.9197 -75.6753 227° Southwest 462 532 36,000  Level New York Center
Wed 08:04:07 PM 39.8461 -75.7919 231° Southwest 462 532 36,000  Level New York Center
Wed 08:05:07 PM 39.7697 -75.9161 231° Southwest 462 532 36,000  Level New York Center
Wed 08:07:31 PM 39.5744 -76.2161 230° Southwest 452 520 36,000  Level Washington Center
Wed 08:08:33 PM 39.4967 -76.3419 231° Southwest 452 520 36,000  Level Washington Center
Wed 08:09:30 PM 39.4167 -76.4672 230° Southwest 452 520 36,000  Level Washington Center
Wed 08:10:32 PM 39.3303 -76.5925 228° Southwest 452 520 36,000  Level Washington Center
Wed 08:11:32 PM 39.2519 -76.7147 230° Southwest 457 526 36,000  Level Washington Center
Wed 08:12:33 PM 39.1717 -76.8419 231° Southwest 457 526 36,000  Level Washington Center
Wed 08:13:31 PM 39.0931 -76.9661 231° Southwest 457 526 36,000  Level Washington Center
Wed 08:14:32 PM 39.0042 -77.0822 225° Southwest 457 526 36,000  Level Washington Center
Wed 08:15:33 PM 38.9050 -77.1894 220° Southwest 457 526 36,000  Level Washington Center
Wed 08:16:31 PM 38.8094 -77.2992 222° Southwest 469 540 36,000  Level Washington Center
Wed 08:17:32 PM 38.7100 -77.4086 221° Southwest 474 545 36,000  Level Washington Center
Wed 08:18:32 PM 38.6144 -77.5206 222° Southwest 474 545 36,000  Level Washington Center
Wed 08:19:34 PM 38.5144 -77.6322 221° Southwest 474 545 36,000  Level Washington Center
Wed 08:20:31 PM 38.4189 -77.7436 222° Southwest 474 545 36,000  Level Washington Center
Wed 08:21:31 PM 38.3144 -77.8594 221° Southwest 474 545 36,000  Level Washington Center
Wed 08:22:32 PM 38.2164 -77.9703 222° Southwest 474 545 36,000  Level Washington Center
Wed 08:23:30 PM 38.1183 -78.0781 221° Southwest 474 545 36,000  Level Washington Center
Wed 08:24:31 PM 38.0242 -78.1856 222° Southwest 474 545 36,000  Level Washington Center
Wed 08:25:32 PM 37.9303 -78.2903 221° Southwest 464 534 36,000  Level Washington Center
Wed 08:26:32 PM 37.8297 -78.3972 220° Southwest 471 542 36,000 -102 Level Washington Center
Wed 08:27:30 PM 37.7333 -78.5039 221° Southwest 471 542 35,800 -712 Descending Washington Center
Wed 08:28:30 PM 37.6306 -78.6125 220° Southwest 471 542 34,600 -1,240 Descending Washington Center
Wed 08:29:31 PM 37.5425 -78.7086 221° Southwest 471 542 33,300 -1,190 Descending Washington Center
Wed 08:30:31 PM 37.4458 -78.8119 220° Southwest 465 535 32,200 -1,140 Descending Washington Center
Wed 08:31:32 PM 37.3536 -78.9125 221° Southwest 459 528 31,000 -1,131 Descending Washington Center
Wed 08:32:33 PM 37.2631 -79.0078 220° Southwest 449 517 29,900 -1,220 Descending Washington Center
Wed 08:33:30 PM 37.1664 -79.1131 221° Southwest 429 494 28,600 -974 Descending Washington Center
Wed 08:34:30 PM 37.0800 -79.2053 220° Southwest 419 482 28,000 -298 Descending Washington Center
Wed 08:35:31 PM 36.9875 -79.3025 220° Southwest 419 482 28,000  Level Washington Center
Wed 08:36:30 PM 36.8903 -79.4042 220° Southwest 436 502 28,000  Level Washington Center
Wed 08:37:31 PM 36.7972 -79.5061 221° Southwest 449 517 28,000  Level Washington Center
Wed 08:38:32 PM 36.7086 -79.5975 220° Southwest 454 522 28,000  Level Washington Center
Wed 08:40:20 PM 36.5208 -79.7917 220° Southwest 443 510 28,000 -929 Level Atlanta Center
Wed 08:41:20 PM 36.4261 -79.8922 221° Southwest 449 517 25,400 -2,750 Descending Atlanta Center
Wed 08:42:20 PM 36.3333 -79.9872 220° Southwest 449 517 22,500 -1,700 Descending Atlanta Center
Wed 08:43:20 PM 36.2381 -80.0719 216° Southwest 439 505 22,000 -1,000 Descending Atlanta Center
Wed 08:44:20 PM 36.1531 -80.1456 215° Southwest 427 491 20,500 -1,867 Descending Atlanta Center
Wed 08:46:20 PM 35.9722 -80.3006 215° Southwest 409 471 16,400 -2,140 Descending Atlanta Center
Wed 08:46:57 PM 35.9092 -80.3572 216° Southwest 377 434 14,900 -2,163 Descending Atlanta Center
Wed 08:47:46 PM 35.8419 -80.4139 214° Southwest 375 432 13,300 -1,800 Descending Atlanta Center
Wed 08:48:47 PM 35.7606 -80.4842 215° Southwest 313 360 11,600 -1,279 Descending Atlanta Center
Wed 08:49:48 PM 35.6803 -80.5208 200° South 307 353 10,700 -1,328 Descending Atlanta Center
Wed 08:50:49 PM 35.6003 -80.5625 203° Southwest 311 358 8,900 -1,304 Descending Atlanta Center
Wed 08:51:20 PM 35.5672 -80.5767 199° South 314 361 8,700 -484 Descending Atlanta Center
Wed 08:51:51 PM 35.5325 -80.6014 210° Southwest 265 305 8,400 -800 Descending Atlanta Center
Wed 08:52:20 PM 35.5036 -80.6153 201° Southwest 276 318 7,900 -1,180 Descending Atlanta Center
Wed 08:52:52 PM 35.4625 -80.6397 206° Southwest 243 280 7,200 -800 Descending Atlanta Center
Wed 08:53:20 PM 35.4419 -80.6508 204° Southwest 255 293 7,100 -295 Descending Atlanta Center
Wed 08:53:53 PM 35.4114 -80.6725 210° Southwest 197 227 6,900 -600 Descending Atlanta Center
Wed 08:54:20 PM 35.3992 -80.6883 227° Southwest 218 251 6,500 -984 Descending Atlanta Center
Wed 08:54:54 PM 35.3769 -80.7172 227° Southwest 165 190 5,900 -900 Descending Atlanta Center
Wed 08:55:20 PM 35.3669 -80.7331 232° Southwest 182 209 5,600 -1,180 Descending Atlanta Center
Wed 08:55:55 PM 35.3469 -80.7617 229° Southwest 171 197 4,700 -1,300 Descending Atlanta Center
Wed 08:56:20 PM 35.3308 -80.7828 227° Southwest 172 198 4,300 -960 Descending Atlanta Center

Login

Don't have an account? Register now (free) for customized features, flight alerts, and more!